createdAt,value
2022-08-07T00:01:44.272Z,97407.28
2022-08-07T00:03:56.505Z,97409.85
2022-08-07T00:06:33.201Z,97405.71
2022-08-07T00:08:55.270Z,97408.29
2022-08-07T00:11:30.051Z,97400.40
2022-08-07T00:13:52.737Z,97401.99
2022-08-07T00:16:28.043Z,97408.66
2022-08-07T00:18:52.129Z,97414.36
2022-08-07T00:21:56.288Z,97412.78
2022-08-07T00:23:50.833Z,97416.13
2022-08-07T00:26:31.394Z,97415.73
2022-08-07T00:28:55.356Z,97417.95
2022-08-07T00:31:17.903Z,97421.69
2022-08-07T00:33:47.428Z,97424.08
2022-08-07T00:36:16.929Z,97417.98
2022-08-07T00:38:44.918Z,97419.38
2022-08-07T00:41:14.679Z,97419.58
2022-08-07T00:44:00.667Z,97427.85
2022-08-07T00:46:13.310Z,97424.54
2022-08-07T00:48:42.516Z,97423.77
2022-08-07T00:51:11.366Z,97427.92
2022-08-07T00:53:50.245Z,97426.93
2022-08-07T00:56:14.051Z,97429.32
2022-08-07T00:58:42.876Z,97428.36
2022-08-07T01:01:12.378Z,97426.96
2022-08-07T01:03:55.298Z,97425.79
2022-08-07T01:06:12.287Z,97429.34
2022-08-07T01:08:43.209Z,97428.57
2022-08-07T01:12:10.299Z,97432.15
2022-08-07T01:13:41.859Z,97433.92
2022-08-07T01:16:11.770Z,97438.66
2022-08-07T01:18:41.516Z,97438.70
2022-08-07T01:21:22.703Z,97439.09
2022-08-07T01:23:47.901Z,97434.59
2022-08-07T01:26:20.278Z,97436.94
2022-08-07T01:28:51.002Z,97439.70
2022-08-07T01:31:24.222Z,97435.00
2022-08-07T01:33:57.460Z,97438.72
2022-08-07T01:36:33.249Z,97446.58
2022-08-07T01:38:57.296Z,97443.23
2022-08-07T01:41:27.043Z,97438.12
2022-08-07T01:43:56.914Z,97442.44
2022-08-07T01:46:26.557Z,97440.08
2022-08-07T01:48:55.404Z,97441.25
2022-08-07T01:52:01.600Z,97438.89
2022-08-07T01:54:12.159Z,97436.14
2022-08-07T01:56:53.032Z,97438.53
2022-08-07T01:59:31.905Z,97439.70
2022-08-07T02:02:11.871Z,97437.76
2022-08-07T02:05:02.558Z,97435.39
2022-08-07T02:07:50.411Z,97438.36
2022-08-07T02:10:14.389Z,97440.71
2022-08-07T02:12:50.098Z,97437.95
2022-08-07T02:15:25.469Z,97433.64
2022-08-07T02:18:03.572Z,97437.77
2022-08-07T02:20:37.281Z,97436.80
2022-08-07T02:23:12.544Z,97439.75
2022-08-07T02:26:30.697Z,97442.73
2022-08-07T02:28:27.086Z,97437.60
2022-08-07T02:30:58.905Z,97443.67
2022-08-07T02:33:32.808Z,97440.14
2022-08-07T02:36:30.865Z,97445.27
2022-08-07T02:38:50.877Z,97443.30
2022-08-07T02:41:13.117Z,97448.44
2022-08-07T02:43:43.675Z,97450.59
2022-08-07T02:46:23.206Z,97455.10
2022-08-07T02:48:55.056Z,97451.97
2022-08-07T02:51:42.829Z,97447.24
2022-08-07T02:53:57.912Z,97450.38
2022-08-07T02:56:30.001Z,97457.86
2022-08-07T02:59:04.619Z,97451.75
2022-08-07T03:01:36.693Z,97449.78
2022-08-07T03:04:12.842Z,97455.51
2022-08-07T03:06:44.846Z,97453.72
2022-08-07T03:09:13.332Z,97456.69
2022-08-07T03:11:51.817Z,97458.85
2022-08-07T03:14:12.531Z,97461.39
2022-08-07T03:16:40.737Z,97466.52
2022-08-07T03:19:10.903Z,97470.83
2022-08-07T03:21:40.439Z,97475.37
2022-08-07T03:24:17.897Z,97475.55
2022-08-07T03:26:51.030Z,97474.77
2022-08-07T03:29:14.741Z,97480.86
2022-08-07T03:31:46.243Z,97481.26
2022-08-07T03:34:18.696Z,97485.38
2022-08-07T03:36:50.571Z,97482.43
2022-08-07T03:39:56.550Z,97480.45
2022-08-07T03:41:50.896Z,97476.92
2022-08-07T03:44:21.738Z,97480.67
2022-08-07T03:47:13.104Z,97487.55
2022-08-07T03:49:20.200Z,97487.54
2022-08-07T03:51:57.336Z,97486.94
2022-08-07T03:54:35.128Z,97492.44
2022-08-07T03:57:03.531Z,97489.31
2022-08-07T03:59:27.157Z,97492.05
2022-08-07T04:01:56.311Z,97497.19
2022-08-07T04:04:26.749Z,97495.23
2022-08-07T04:06:57.515Z,97496.21
2022-08-07T04:09:38.079Z,97491.31
2022-08-07T04:12:25.932Z,97493.45
2022-08-07T04:14:37.248Z,97491.70
2022-08-07T04:16:59.486Z,97494.25
2022-08-07T04:19:34.088Z,97491.69
2022-08-07T04:22:07.787Z,97496.22
2022-08-07T04:24:34.052Z,97503.33
2022-08-07T04:27:02.554Z,97499.01
2022-08-07T04:29:48.668Z,97500.39
2022-08-07T04:32:09.942Z,97502.33
2022-08-07T04:34:34.153Z,97505.08
2022-08-07T04:37:02.986Z,97507.84
2022-08-07T04:39:35.888Z,97508.44
2022-08-07T04:42:04.633Z,97506.27
2022-08-07T04:44:35.588Z,97498.76
2022-08-07T04:47:11.251Z,97508.20
2022-08-07T04:49:58.032Z,97501.73
2022-08-07T04:52:51.221Z,97509.21
2022-08-07T04:58:12.436Z,97507.02
2022-08-07T04:59:17.488Z,97517.09
2022-08-07T05:01:40.971Z,97525.96
2022-08-07T05:04:18.820Z,97519.45
2022-08-07T05:07:19.678Z,97520.42
2022-08-07T05:10:04.911Z,97520.05
2022-08-07T05:12:52.806Z,97521.80
2022-08-07T05:15:23.066Z,97523.56
2022-08-07T05:17:54.616Z,97529.84
2022-08-07T05:20:26.390Z,97528.42
2022-08-07T05:22:59.868Z,97524.08
2022-08-07T05:25:54.413Z,97523.45
2022-08-07T05:28:03.336Z,97525.22
2022-08-07T05:30:33.079Z,97529.13
2022-08-07T05:33:05.223Z,97530.84
2022-08-07T05:35:42.208Z,97529.26
2022-08-07T05:38:09.036Z,97526.08
2022-08-07T05:40:50.468Z,97524.68
2022-08-07T05:43:10.579Z,97515.01
2022-08-07T05:45:47.416Z,97523.04
2022-08-07T05:48:10.871Z,97518.28
2022-08-07T05:50:43.026Z,97514.89
2022-08-07T05:54:08.609Z,97522.77
2022-08-07T05:56:03.350Z,97522.34
2022-08-07T05:58:16.930Z,97516.83
2022-08-07T06:00:50.779Z,97521.73
2022-08-07T06:03:21.272Z,97518.34
2022-08-07T06:05:56.544Z,97521.27
2022-08-07T06:08:30.937Z,97522.81
2022-08-07T06:10:51.213Z,97514.09
2022-08-07T06:13:20.902Z,97512.24
2022-08-07T06:15:51.116Z,97518.68
2022-08-07T06:18:21.751Z,97516.27
2022-08-07T06:22:16.733Z,97521.08
2022-08-07T06:23:24.941Z,97516.23
2022-08-07T06:25:54.471Z,97516.95
2022-08-07T06:28:27.333Z,97518.00
2022-08-07T06:30:52.965Z,97517.47
2022-08-07T06:33:22.918Z,97507.08
2022-08-07T06:36:13.239Z,97511.30
2022-08-07T06:38:20.904Z,97515.30
2022-08-07T06:40:53.130Z,97513.39
2022-08-07T06:43:24.483Z,97514.43
2022-08-07T06:46:00.866Z,97509.51
2022-08-07T06:48:27.359Z,97516.24
2022-08-07T06:50:59.939Z,97511.34
2022-08-07T06:54:11.643Z,97508.16
2022-08-07T06:56:02.272Z,97517.91
2022-08-07T06:58:34.936Z,97516.16
2022-08-07T07:01:09.257Z,97518.77
2022-08-07T07:03:49.278Z,97515.22
2022-08-07T07:06:11.276Z,97512.06
2022-08-07T07:08:39.877Z,97511.08
2022-08-07T07:11:14.008Z,97518.03
2022-08-07T07:13:58.091Z,97513.69
2022-08-07T07:16:21.270Z,97516.27
2022-08-07T07:19:04.077Z,97509.81
2022-08-07T07:22:04.269Z,97507.95
2022-08-07T07:24:12.563Z,97509.08
2022-08-07T07:26:49.644Z,97507.20
2022-08-07T07:29:38.978Z,97509.59
2022-08-07T07:31:50.974Z,97512.65
2022-08-07T07:34:23.125Z,97516.67
2022-08-07T07:36:54.226Z,97512.19
2022-08-07T07:39:25.691Z,97512.63
2022-08-07T07:42:13.029Z,97518.61
2022-08-07T07:44:28.379Z,97519.81
2022-08-07T07:47:04.249Z,97519.66
2022-08-07T07:50:33.756Z,97516.68
2022-08-07T07:52:01.182Z,97512.01
2022-08-07T07:54:32.081Z,97517.06
2022-08-07T07:57:03.061Z,97506.08
2022-08-07T07:59:52.686Z,97506.61
2022-08-07T08:02:10.356Z,97505.66
2022-08-07T08:04:37.300Z,97500.66
2022-08-07T08:07:07.681Z,97508.80
2022-08-07T08:09:52.017Z,97493.58
2022-08-07T08:12:09.550Z,97501.03
2022-08-07T08:14:39.282Z,97500.91
2022-08-07T08:17:55.434Z,97503.34
2022-08-07T08:20:18.508Z,97504.20
2022-08-07T08:22:32.974Z,97506.45
2022-08-07T08:25:41.933Z,97505.77
2022-08-07T08:27:56.268Z,97502.17
2022-08-07T08:30:24.439Z,97501.08
2022-08-07T08:32:59.387Z,97498.48
2022-08-07T08:35:42.821Z,97505.57
2022-08-07T08:38:03.402Z,97506.66
2022-08-07T08:40:38.984Z,97500.65
2022-08-07T08:43:42.651Z,97499.25
2022-08-07T08:46:14.759Z,97504.84
2022-08-07T08:49:14.637Z,97498.36
2022-08-07T08:52:14.067Z,97502.65
2022-08-07T08:54:32.266Z,97503.42
2022-08-07T08:57:08.392Z,97498.69
2022-08-07T08:59:53.228Z,97497.28
2022-08-07T09:02:41.772Z,97496.17
2022-08-07T09:05:48.168Z,97490.86
2022-08-07T09:08:43.880Z,97491.63
2022-08-07T09:11:24.292Z,97487.31
2022-08-07T09:14:13.289Z,97482.27
2022-08-07T09:16:50.351Z,97474.91
2022-08-07T09:19:53.320Z,97483.28
2022-08-07T09:24:31.902Z,97478.41
2022-08-07T09:25:26.038Z,97479.34
2022-08-07T09:30:04.094Z,97478.20
2022-08-07T09:31:02.920Z,97483.77
2022-08-07T09:34:00.976Z,97469.33
2022-08-07T09:36:52.665Z,97472.82
2022-08-07T09:39:53.834Z,97475.35
2022-08-07T09:42:31.583Z,97477.05
2022-08-07T09:47:37.287Z,97470.52
2022-08-07T09:48:14.461Z,97471.74
2022-08-07T09:51:14.769Z,97468.11
2022-08-07T09:53:48.927Z,97460.50
2022-08-07T09:56:39.279Z,97454.44
2022-08-07T10:00:00.279Z,97452.27
2022-08-07T10:02:41.350Z,97458.34
2022-08-07T10:05:29.700Z,97456.45
2022-08-07T10:08:05.861Z,97453.79
2022-08-07T10:11:16.963Z,97450.95
2022-08-07T10:14:00.319Z,97451.59
2022-08-07T10:16:56.196Z,97450.86
2022-08-07T10:19:59.842Z,97451.81
2022-08-07T10:22:50.954Z,97451.02
2022-08-07T10:25:32.824Z,97448.09
2022-08-07T10:28:24.555Z,97454.90
2022-08-07T10:31:11.139Z,97452.66
2022-08-07T10:34:15.567Z,97451.25
2022-08-07T10:36:41.601Z,97447.19
2022-08-07T10:39:41.528Z,97446.39
2022-08-07T10:42:21.376Z,97443.87
2022-08-07T10:45:44.376Z,97447.86
2022-08-07T10:48:03.867Z,97443.45
2022-08-07T10:50:50.167Z,97445.23
2022-08-07T10:54:06.630Z,97444.86
2022-08-07T10:57:00.292Z,97435.38
2022-08-07T10:59:57.525Z,97437.98
2022-08-07T11:02:38.049Z,97438.22
2022-08-07T11:05:51.153Z,97432.70
2022-08-07T11:08:45.565Z,97434.21
2022-08-07T11:11:37.650Z,97433.97
2022-08-07T11:14:45.254Z,97423.27
2022-08-07T11:17:07.325Z,97427.94
2022-08-07T11:19:51.226Z,97430.55
2022-08-07T11:22:46.247Z,97424.19
2022-08-07T11:25:26.777Z,97416.27
2022-08-07T11:28:15.624Z,97418.93
2022-08-07T11:30:55.966Z,97412.38
2022-08-07T11:33:58.444Z,97403.88
2022-08-07T11:36:38.925Z,97397.70
2022-08-07T11:40:00.999Z,97394.57
2022-08-07T11:42:49.197Z,97392.47
2022-08-07T11:46:03.394Z,97393.22
2022-08-07T11:49:10.279Z,97387.13
2022-08-07T11:51:44.977Z,97392.47
2022-08-07T11:54:46.447Z,97395.11
2022-08-07T11:57:59.444Z,97399.36
2022-08-07T12:00:21.196Z,97386.64
2022-08-07T12:03:03.941Z,97389.13
2022-08-07T12:05:51.563Z,97380.57
2022-08-07T12:08:34.489Z,97381.33
2022-08-07T12:11:21.201Z,97375.12
2022-08-07T12:13:52.594Z,97379.19
2022-08-07T12:16:30.230Z,97381.52
2022-08-07T12:19:35.927Z,97369.23
2022-08-07T12:22:38.654Z,97374.66
2022-08-07T12:26:00.312Z,97366.91
2022-08-07T12:28:09.688Z,97368.39
2022-08-07T12:30:34.759Z,97366.83
2022-08-07T12:33:23.335Z,97360.44
2022-08-07T12:35:57.978Z,97360.56
2022-08-07T12:38:38.448Z,97347.44
2022-08-07T12:40:55.802Z,97340.72
2022-08-07T12:44:02.416Z,97331.80
2022-08-07T12:46:31.967Z,97336.83
2022-08-07T12:49:09.754Z,97336.66
2022-08-07T12:51:51.285Z,97335.59
2022-08-07T12:54:38.376Z,97338.83
2022-08-07T12:57:07.414Z,97330.69
2022-08-07T12:59:53.905Z,97329.00
2022-08-07T13:02:24.920Z,97339.02
2022-08-07T13:06:01.970Z,97330.69
2022-08-07T13:08:12.913Z,97326.86
2022-08-07T13:10:44.027Z,97322.23
2022-08-07T13:13:48.280Z,97330.02
2022-08-07T13:16:32.442Z,97323.91
2022-08-07T13:19:45.666Z,97321.05
2022-08-07T13:22:33.448Z,97325.41
2022-08-07T13:25:29.745Z,97318.13
2022-08-07T13:28:10.883Z,97323.77
2022-08-07T13:30:40.004Z,97318.32
2022-08-07T13:34:34.325Z,97325.09
2022-08-07T13:36:05.794Z,97318.33
2022-08-07T13:39:11.299Z,97319.34
2022-08-07T13:41:47.617Z,97315.73
2022-08-07T13:44:27.124Z,97324.23
2022-08-07T13:46:59.721Z,97321.81
2022-08-07T13:50:35.582Z,97318.84
2022-08-07T13:52:25.946Z,97319.86
2022-08-07T13:54:42.986Z,97320.63
2022-08-07T13:57:23.925Z,97319.05
2022-08-07T13:59:50.186Z,97323.72
2022-08-07T14:02:29.791Z,97326.80
2022-08-07T14:05:11.818Z,97326.20
2022-08-07T14:08:00.753Z,97325.41
2022-08-07T14:10:24.380Z,97324.45
2022-08-07T14:12:58.169Z,97316.66
2022-08-07T14:15:50.432Z,97316.17
2022-08-07T14:18:28.337Z,97319.71
2022-08-07T14:21:08.344Z,97317.64
2022-08-07T14:24:01.272Z,97315.42
2022-08-07T14:26:08.993Z,97314.47
2022-08-07T14:28:57.409Z,97316.95
2022-08-07T14:31:13.784Z,97321.13
2022-08-07T14:33:45.474Z,97315.34
2022-08-07T14:36:14.904Z,97322.04
2022-08-07T14:38:50.443Z,97321.72
2022-08-07T14:41:34.088Z,97327.61
2022-08-07T14:44:08.074Z,97320.59
2022-08-07T14:46:32.068Z,97324.13
2022-08-07T14:49:17.407Z,97327.52
2022-08-07T14:52:05.032Z,97325.48
2022-08-07T14:54:09.510Z,97328.13
2022-08-07T14:56:33.643Z,97333.97
2022-08-07T14:59:13.422Z,97332.64
2022-08-07T15:01:50.953Z,97340.97
2022-08-07T15:04:14.130Z,97322.75
2022-08-07T15:06:49.145Z,97330.11
2022-08-07T15:09:58.007Z,97326.31
2022-08-07T15:20:31.283Z,97347.26
2022-08-07T15:22:22.164Z,97350.89
2022-08-07T15:27:23.621Z,97356.50
2022-08-07T15:30:14.421Z,97365.82
2022-08-07T15:32:40.040Z,97362.72
2022-08-07T15:34:57.324Z,97363.72
2022-08-07T15:42:52.083Z,97370.95
2022-08-07T15:45:55.716Z,97380.66
2022-08-07T15:48:07.589Z,97377.02
2022-08-07T15:51:08.946Z,97375.16
2022-08-07T15:53:18.385Z,97381.52
2022-08-07T15:56:02.125Z,97379.52
2022-08-07T15:58:44.741Z,97384.95
2022-08-07T16:01:21.763Z,97379.75
2022-08-07T16:03:55.775Z,97386.02
2022-08-07T16:06:50.838Z,97392.95
2022-08-07T16:09:23.214Z,97391.13
2022-08-07T16:13:01.283Z,97387.31
2022-08-07T16:15:57.418Z,97388.52
2022-08-07T16:18:43.546Z,97397.22
2022-08-07T16:22:03.348Z,97392.78
2022-08-07T16:24:33.807Z,97394.98
2022-08-07T16:27:18.778Z,97401.03
2022-08-07T16:30:32.103Z,97402.42
2022-08-07T16:34:03.451Z,97401.03
2022-08-07T16:36:19.954Z,97402.42
2022-08-07T16:39:00.911Z,97399.64
2022-08-07T16:42:13.691Z,97405.02
2022-08-07T16:46:40.582Z,97413.17
2022-08-07T16:48:16.185Z,97420.54
2022-08-07T16:51:20.459Z,97424.59
2022-08-07T16:54:09.647Z,97429.44
2022-08-07T16:56:53.223Z,97436.85
2022-08-07T16:59:51.549Z,97434.01
2022-08-07T17:02:53.938Z,97434.72
2022-08-07T17:06:30.446Z,97433.88
2022-08-07T17:08:02.112Z,97434.59
2022-08-07T17:10:54.499Z,97434.07
2022-08-07T17:14:18.991Z,97440.34
2022-08-07T17:16:29.072Z,97442.28
2022-08-07T17:19:05.923Z,97448.95
2022-08-07T17:21:52.590Z,97438.03
2022-08-07T17:24:43.820Z,97443.33
2022-08-07T17:27:29.744Z,97445.09
2022-08-07T17:30:16.192Z,97446.99
2022-08-07T17:34:08.496Z,97446.52
2022-08-07T17:36:12.100Z,97448.08
2022-08-07T17:38:45.206Z,97449.56
2022-08-07T17:42:04.347Z,97451.70
2022-08-07T17:44:33.247Z,97452.06
2022-08-07T17:46:52.652Z,97453.45
2022-08-07T17:49:45.794Z,97450.47
2022-08-07T17:52:40.535Z,97455.08
2022-08-07T17:55:16.634Z,97456.02
2022-08-07T17:58:02.102Z,97466.60
2022-08-07T18:00:34.099Z,97464.99
2022-08-07T18:03:25.665Z,97467.72
2022-08-07T18:06:09.297Z,97466.67
2022-08-07T18:09:00.779Z,97472.38
2022-08-07T18:12:06.542Z,97482.59
2022-08-07T18:14:23.897Z,97487.44
2022-08-07T18:16:58.241Z,97492.28
2022-08-07T18:21:09.614Z,97495.56
2022-08-07T18:22:32.886Z,97503.34
2022-08-07T18:25:18.862Z,97505.03
2022-08-07T18:28:01.747Z,97507.29
2022-08-07T18:31:09.909Z,97517.17
2022-08-07T18:33:55.092Z,97525.28
2022-08-07T18:36:54.031Z,97531.55
2022-08-07T18:40:07.792Z,97527.72
2022-08-07T18:42:51.088Z,97523.82
2022-08-07T18:45:43.908Z,97529.59
2022-08-07T18:50:06.025Z,97529.48
2022-08-07T18:51:07.234Z,97526.16
2022-08-07T18:53:40.929Z,97522.06
2022-08-07T18:57:29.871Z,97528.64
2022-08-07T18:59:59.274Z,97527.70
2022-08-07T19:02:43.248Z,97531.30
2022-08-07T19:05:26.166Z,97527.98
2022-08-07T19:08:05.127Z,97533.75
2022-08-07T19:10:51.709Z,97527.69
2022-08-07T19:13:27.429Z,97531.84
2022-08-07T19:17:00.748Z,97537.02
2022-08-07T19:19:19.889Z,97529.91
2022-08-07T19:22:14.816Z,97529.13
2022-08-07T19:24:45.571Z,97525.58
2022-08-07T19:29:02.924Z,97529.53
2022-08-07T19:31:01.927Z,97527.97
2022-08-07T19:32:43.939Z,97530.74
2022-08-07T19:35:03.575Z,97529.53
2022-08-07T19:37:56.331Z,97531.13
2022-08-07T19:40:08.315Z,97526.97
2022-08-07T19:42:43.618Z,97527.57
2022-08-07T19:46:08.057Z,97525.38
2022-08-07T19:47:52.419Z,97533.16
2022-08-07T19:50:44.079Z,97527.85
2022-08-07T19:52:58.596Z,97527.67
2022-08-07T19:55:24.340Z,97533.63
2022-08-07T19:58:12.596Z,97527.91
2022-08-07T20:00:29.986Z,97536.88
2022-08-07T20:03:04.141Z,97536.09
2022-08-07T20:06:00.465Z,97541.29
2022-08-07T20:08:13.170Z,97534.94
2022-08-07T20:10:55.420Z,97533.03
2022-08-07T20:13:23.548Z,97535.06
2022-08-07T20:15:54.777Z,97536.30
2022-08-07T20:18:32.547Z,97536.34
2022-08-07T20:20:58.930Z,97541.94
2022-08-07T20:23:40.853Z,97542.34
2022-08-07T20:26:02.276Z,97546.14
2022-08-07T20:28:31.213Z,97541.98
2022-08-07T20:31:01.006Z,97545.41
2022-08-07T20:33:37.984Z,97548.35
2022-08-07T20:36:06.110Z,97542.64
2022-08-07T20:38:35.082Z,97546.41
2022-08-07T20:41:05.576Z,97551.77
2022-08-07T20:43:35.060Z,97555.58
2022-08-07T20:46:29.060Z,97554.41
2022-08-07T20:48:35.968Z,97561.16
2022-08-07T20:51:09.387Z,97565.92
2022-08-07T20:54:04.580Z,97559.39
2022-08-07T20:56:09.915Z,97565.71
2022-08-07T20:58:41.399Z,97562.41
2022-08-07T21:01:19.613Z,97567.39
2022-08-07T21:04:13.031Z,97563.28
2022-08-07T21:06:28.286Z,97564.70
2022-08-07T21:09:03.062Z,97569.69
2022-08-07T21:11:46.320Z,97574.05
2022-08-07T21:14:32.135Z,97577.17
2022-08-07T21:16:55.982Z,97574.00
2022-08-07T21:19:14.086Z,97574.53
2022-08-07T21:21:49.167Z,97572.15
2022-08-07T21:24:30.631Z,97574.49
2022-08-07T21:27:26.775Z,97577.82
2022-08-07T21:30:11.654Z,97574.23
2022-08-07T21:32:52.641Z,97580.13
2022-08-07T21:35:34.645Z,97586.87
2022-08-07T21:38:12.038Z,97580.55
2022-08-07T21:40:47.435Z,97582.16
2022-08-07T21:43:24.918Z,97586.13
2022-08-07T21:46:24.995Z,97589.68
2022-08-07T21:49:27.240Z,97585.30
2022-08-07T21:52:11.809Z,97593.23
2022-08-07T21:55:28.376Z,97589.25
2022-08-07T21:58:12.306Z,97584.75
2022-08-07T22:00:46.175Z,97592.67
2022-08-07T22:03:44.987Z,97593.70
2022-08-07T22:06:30.457Z,97600.06
2022-08-07T22:08:58.757Z,97596.55
2022-08-07T22:11:30.769Z,97606.89
2022-08-07T22:14:05.285Z,97600.61
2022-08-07T22:16:47.792Z,97598.66
2022-08-07T22:19:32.870Z,97601.07
2022-08-07T22:22:28.901Z,97607.61
2022-08-07T22:24:56.458Z,97607.06
2022-08-07T22:28:20.215Z,97608.89
2022-08-07T22:30:18.943Z,97610.69
2022-08-07T22:33:04.793Z,97615.06
2022-08-07T22:35:53.072Z,97616.27
2022-08-07T22:38:49.175Z,97616.48
2022-08-07T22:42:03.260Z,97623.05
2022-08-07T22:44:21.331Z,97630.59
2022-08-07T22:47:14.952Z,97614.23
2022-08-07T22:50:20.775Z,97624.70
2022-08-07T22:53:04.141Z,97618.78
2022-08-07T22:56:08.753Z,97620.34
2022-08-07T22:59:14.150Z,97617.58
2022-08-07T23:02:14.371Z,97626.27
2022-08-07T23:06:08.856Z,97621.16
2022-08-07T23:08:24.372Z,97619.59
2022-08-07T23:11:15.587Z,97612.31
2022-08-07T23:14:15.101Z,97618.48
2022-08-07T23:16:55.928Z,97619.48
2022-08-07T23:20:03.778Z,97623.45
2022-08-07T23:24:06.156Z,97620.50
2022-08-07T23:26:19.232Z,97621.70
2022-08-07T23:29:43.975Z,97620.35
2022-08-07T23:34:20.231Z,97630.42
2022-08-07T23:35:39.761Z,97631.05
2022-08-07T23:38:36.546Z,97637.42
2022-08-07T23:41:17.870Z,97632.89
2022-08-07T23:44:11.549Z,97634.09
2022-08-07T23:47:10.722Z,97631.74
2022-08-07T23:50:01.906Z,97623.66
2022-08-07T23:52:58.253Z,97629.00
2022-08-07T23:55:53.499Z,97624.47
2022-08-07T23:58:21.640Z,97620.95
